Station info - map view · info · telemetry · weather · raw · status · beacons · messages · bulletins · browse · moving · my account
Callsign, ship name or locator: Clear       
It is possible to search using wildcards (*?) after a prefix. Example: OH*
APRS station 2W0KSA - show graphs
Map loading...
Mic-E message: En route
Location: 51°32.61' N 3°23.43' W - locator IO81HN30DK - show map - static map
2.6 miles West bearing 253° from Llantwit Fardre, Rhondda Cynon Taff, Wales, United Kingdom [?]
4.2 miles West bearing 284° from Pentyrch, City and County of Cardiff, Wales, United Kingdom
34.7 miles West bearing 280° from Bristol, City of Bristol, England, United Kingdom
90.6 miles Southwest bearing 225° from Birmingham, City and Borough of Birmingham, England, United Kingdom
Last position: 2017-08-15 10:09:37 EDT (6d 7h27m ago)
2017-08-15 15:09:37 BST local time at Llantwit Fardre, United Kingdom [?]
Altitude: 164 ft
Course: 61°
Speed: 5 MPH
Device: Yaesu: FTM-400DR (rig)
Last path: 2W0KSA>UQ3RVQ via G0ROZ-3,M1ABD,WIDE2*,qAR,MB7UR (good)
Positions stored: 239
Other SSIDs: 2W0KSA-7
Stations near current position of 2W0KSA - show more
callsign distance last heard - EDT      callsign distance last heard - EDT
EW88656.9 miles 72°2017-08-21 17:34:49 GW0NKG7.0 miles 251°2017-08-21 17:23:01
MW0YBZ7.2 miles 61°2017-08-21 17:32:32 MW0UZO7.3 miles 121°2017-08-19 14:52:29
2W0JCV B7.5 miles 128°2017-08-21 17:23:17 2W0JCV-B7.5 miles 128°2017-08-21 17:23:27
MW0TDQ-107.9 miles 304°2017-08-21 17:31:02 MW0TDQ-18.1 miles 253°2017-08-21 17:32:51
MW0TDQ-38.1 miles 253°2017-08-20 15:19:28 2W0VKA B8.5 miles 343°2017-08-21 07:03:41
2W0VKA-B8.5 miles 343°2017-08-21 07:03:51 SV4CZC B8.5 miles 70°2017-08-21 17:22:35
SV4CZC-B8.5 miles 70°2017-08-21 17:22:45 MW6CTE C8.8 miles 119°2017-08-15 15:55:02
MW6CTE-C8.8 miles 119°2017-08-15 15:55:12 MW0MAU9.3 miles 43°2017-08-21 17:33:27
MW0MAU B9.3 miles 43°2017-08-21 17:32:47 MW0MAU-B9.3 miles 43°2017-08-21 17:32:57
MB6IMU B9.3 miles 43°2017-08-21 17:19:49 MB6IMU-B9.3 miles 43°2017-08-21 17:19:59
Stations which heard 2W0KSA directly on radio –
callsign pkts first heard - EDT last heard longest (tx => rx) longest at - EDT
GW7ERI 17 2017-08-11 11:03:48 2017-08-13 13:55:41 IO81TL > IO81QP 15.5 miles 309° 2017-08-11 11:23:28
MB7UJ 12 2017-08-11 12:38:03 2017-08-13 12:51:10 IO91TH > IO91PK 18.3 miles 302° 2017-08-11 13:22:29
G0ROZ-3 4 2017-08-11 10:36:16 2017-08-15 10:09:37 IO81HN > IO80QR 64.5 miles 149° 2017-08-15 10:09:37
M1ABD 3 2017-08-11 10:35:06 2017-08-11 10:36:57 IO81LN > IO80UU 58.5 miles 146° 2017-08-11 10:35:06
G0BUX 1 2017-08-12 11:19:52 2017-08-12 11:19:52 JO01AE > IO91XE 3.7 miles 254° 2017-08-12 11:19:52
MB7UR 15 2017-08-11 11:31:33 2017-08-13 13:37:52 IO81VM > IO91DL 22.6 miles 94° 2017-08-13 13:37:52
MB7UW 1 2017-08-13 13:01:22 2017-08-13 13:01:22 IO91HK > IO91HB 26.9 miles 179° 2017-08-13 13:01:22
MB7UG 6 2017-08-11 12:13:35 2017-08-13 12:59:25 IO91FL > IO91ME 30.0 miles 129° 2017-08-11 12:13:35
G4ZLZ-1 3 2017-08-11 13:35:32 2017-08-11 13:38:03 IO91UG > IO91UJ 8.4 miles 6° 2017-08-11 13:38:03
M1PTT 6 2017-08-11 12:21:58 2017-08-13 13:02:21 IO91HK > IO91IJ 6.4 miles 114° 2017-08-13 13:02:21
2E0RDJ 2 2017-08-11 11:07:01 2017-08-13 13:42:21 IO81TL > IO81QP 14.0 miles 311° 2017-08-13 13:42:21
G0MAS 2 2017-08-11 10:35:38 2017-08-11 10:38:04 IO81LN > IO80GV 48.0 miles 203° 2017-08-11 10:38:04
MB7UMS 5 2017-08-11 13:41:04 2017-08-11 14:03:35 IO91UG > IO91WB 14.8 miles 158° 2017-08-11 13:41:04
MB7VV-10 22 2017-08-11 10:33:45 2017-08-13 14:22:14 IO81LN > IO81TK 29.9 miles 106° 2017-08-11 10:33:45
M3ONV-5 2 2017-08-14 01:08:09 2017-08-15 10:06:20 IO81GP > IO81GE 31.9 miles 178° 2017-08-14 01:08:09
M0GQS 22 2017-08-11 12:27:59 2017-08-13 12:52:09 IO91KL > IO91MK 7.5 miles 101° 2017-08-11 12:27:59
M6ORT-10 1 2017-08-11 13:36:33 2017-08-11 13:36:33 IO91UG > IO91WP 25.2 miles 14° 2017-08-11 13:36:33
MB7UCC 30 2017-08-11 11:34:37 2017-08-13 13:28:21 IO91GK > IO81XW 40.4 miles 324° 2017-08-11 12:15:47
MB7UVV-10 2 2017-08-11 10:38:04 2017-08-11 10:41:48 IO81LN > IO81RK 25.2 miles 109° 2017-08-11 10:38:04
G8PKY 5 2017-08-11 11:17:17 2017-08-13 13:47:25 IO81SL > IO81RL 4.1 miles 262° 2017-08-13 13:43:21
MB7UNE-10 42 2017-08-11 10:35:34 2017-08-13 14:20:14 IO81UM > IO81NO 24.1 miles 282° 2017-08-11 11:27:28
MB7UUU 3 2017-08-11 12:31:59 2017-08-11 12:37:03 IO91MJ > IO91LK 3.2 miles 317° 2017-08-11 12:37:03
M6XTB-1 2 2017-08-13 13:13:51 2017-08-13 13:19:05 IO91DM > IO91CO 8.6 miles 310° 2017-08-13 13:13:51

Only position packets which were originated by the station are shown here. The range statistics show some extra long hops, because some digipeaters do not correctly add themselves to the digipeater path. Please check the raw packets.
About this site
This page shows real-time information collected from the Automatic Position Reporting System Internet network (APRS-IS). APRS is used by amateur (ham) radio operators to transmit real-time position information, weather data, telemetry and messages over the radio. A vehicle equipped with a GPS receiver, a VHF transmitter or HF transceiver and a small computer device called a tracker transmits it's location, speed and course in a small data packet, which is then received by a nearby iGate receiving site which forwards the packet on the Internet. Systems connected to the Internet can send information on the APRS-IS without a radio transmitter, or collect and display information transmitted anywhere in the world.
FAQ · Blog · Discussion group · Linking to aprs.fi · AIS sites · Service status · Database statistics · Advertising on aprs.fi · Technical details · API · Change log · Planned changes · Credits and thanks · Terms Of Service · iPhone/iPad APRS